Time;durP1;ratioP1;P1;durP2;ratioP2;P2;SDS_P1;SDS_P2;PMS_P1;PMS_P2;Temp;Humidity;BMP_temperature;BMP_pressure;BME280_temperature;BME280_humidity;BME280_pressure;Samples;Min_cycle;Max_cycle;Signal;HPM_P1;HPM_P2
2023/12/03 00:00:53;;;;;;;1.98;1.77;;;-0.70;92.10;;;;;;4922776;29;20536;-59
2023/12/03 00:03:21;;;;;;;0.63;0.63;;;-0.60;92.00;;;;;;4925786;29;20194;-60
2023/12/03 00:05:47;;;;;;;0.50;0.50;;;-0.60;92.10;;;;;;4927759;29;20225;-60
2023/12/03 00:08:13;;;;;;;1.00;0.77;;;-0.70;92.00;;;;;;4906475;29;20598;-59
2023/12/03 00:10:39;;;;;;;1.88;1.77;;;-0.80;92.50;;;;;;4926240;29;20216;-60
2023/12/03 00:13:04;;;;;;;3.63;2.87;;;-0.90;92.50;;;;;;4905865;29;20194;-62
2023/12/03 00:15:30;;;;;;;1.37;1.27;;;-0.80;92.60;;;;;;4912951;29;20175;-60
2023/12/03 00:17:56;;;;;;;1.70;1.60;;;-0.80;92.80;;;;;;4917157;29;20610;-60
2023/12/03 00:20:22;;;;;;;2.97;1.98;;;-0.90;92.50;;;;;;4928447;29;20185;-60
2023/12/03 00:22:47;;;;;;;2.20;2.10;;;-0.90;92.50;;;;;;4933885;29;20689;-60
2023/12/03 00:25:13;;;;;;;1.53;1.47;;;-1.10;91.90;;;;;;4933372;29;20181;-60
2023/12/03 00:27:39;;;;;;;0.97;0.97;;;-1.10;92.40;;;;;;4933417;29;20190;-60
2023/12/03 00:30:05;;;;;;;1.17;1.07;;;-1.20;92.40;;;;;;4933917;29;20646;-60
2023/12/03 00:32:30;;;;;;;3.25;2.97;;;-1.30;92.80;;;;;;4933773;29;20170;-60
2023/12/03 00:34:56;;;;;;;9.90;2.77;;;-1.20;92.80;;;;;;4933696;29;20544;-60
2023/12/03 00:37:22;;;;;;;0.80;0.80;;;-1.30;92.50;;;;;;4933847;29;20178;-60
2023/12/03 00:39:48;;;;;;;0.88;0.80;;;-1.30;92.50;;;;;;4916657;29;20653;-60
2023/12/03 00:42:15;;;;;;;0.90;0.90;;;-1.30;92.50;;;;;;4919573;29;20182;-60
2023/12/03 00:44:41;;;;;;;1.95;1.85;;;-1.30;92.60;;;;;;4937208;29;20178;-60
2023/12/03 00:47:08;;;;;;;4.90;4.47;;;-1.10;92.70;;;;;;4937396;29;20246;-60
2023/12/03 00:49:33;;;;;;;2.78;1.33;;;-1.10;92.20;;;;;;4937075;29;20477;-60
2023/12/03 00:51:59;;;;;;;0.87;0.80;;;-1.10;91.80;;;;;;4937202;29;20174;-60
2023/12/03 00:54:24;;;;;;;0.97;0.97;;;-1.20;91.90;;;;;;4936984;29;20624;-60
2023/12/03 00:56:50;;;;;;;1.13;0.93;;;-1.20;92.20;;;;;;4937118;29;20171;-60
2023/12/03 00:59:16;;;;;;;0.87;0.83;;;-1.10;92.50;;;;;;4937344;29;20233;-60
2023/12/03 01:01:41;;;;;;;7.63;1.40;;;-1.00;92.50;;;;;;4937042;29;20179;-60
2023/12/03 01:04:07;;;;;;;1.57;1.03;;;-1.10;92.50;;;;;;4936799;29;20221;-60
2023/12/03 01:06:32;;;;;;;0.70;0.70;;;-1.10;92.00;;;;;;4937059;29;20664;-60
2023/12/03 01:08:58;;;;;;;1.13;1.13;;;-1.10;91.80;;;;;;4936876;29;20698;-60
2023/12/03 01:11:24;;;;;;;1.57;1.43;;;-1.10;92.10;;;;;;4936888;29;20170;-60
2023/12/03 01:13:49;;;;;;;1.03;0.90;;;-1.20;92.10;;;;;;4936664;29;20190;-60
2023/12/03 01:16:16;;;;;;;0.77;0.77;;;-1.30;92.20;;;;;;4936877;29;20332;-60
2023/12/03 01:18:42;;;;;;;3.15;2.15;;;-1.40;92.20;;;;;;4936865;29;20174;-60
2023/12/03 01:21:08;;;;;;;1.88;0.95;;;-1.50;92.30;;;;;;4936784;29;20178;-60
2023/12/03 01:23:33;;;;;;;3.90;0.77;;;-1.60;92.30;;;;;;4936367;29;20206;-59
2023/12/03 01:25:59;;;;;;;0.83;0.83;;;-1.60;92.70;;;;;;4937020;29;20182;-60
2023/12/03 01:28:25;;;;;;;2.63;2.50;;;-1.50;92.90;;;;;;4936736;29;20249;-60
2023/12/03 01:30:50;;;;;;;1.80;1.30;;;-1.40;93.10;;;;;;4936549;29;20620;-60
2023/12/03 01:33:16;;;;;;;4.83;2.30;;;-1.30;93.20;;;;;;4936246;29;20194;-60
2023/12/03 01:35:42;;;;;;;0.50;0.50;;;-1.20;93.10;;;;;;4936159;29;20175;-60
2023/12/03 01:38:07;;;;;;;0.70;0.70;;;-1.10;93.00;;;;;;4936419;29;20186;-60
2023/12/03 01:40:33;;;;;;;2.00;1.70;;;-1.00;92.70;;;;;;4936154;29;20626;-60
2023/12/03 01:42:59;;;;;;;1.73;1.63;;;-0.90;92.30;;;;;;4935974;29;20570;-60
2023/12/03 01:45:25;;;;;;;0.95;0.85;;;-0.90;92.20;;;;;;4936373;29;20176;-60
2023/12/03 01:47:51;;;;;;;1.33;1.23;;;-1.00;92.10;;;;;;4936329;29;20237;-59
2023/12/03 01:50:19;;;;;;;0.73;0.73;;;-1.10;92.10;;;;;;4936485;29;20198;-60
2023/12/03 01:52:44;;;;;;;1.67;1.38;;;-1.00;92.20;;;;;;4935720;29;20446;-59
2023/12/03 01:55:12;;;;;;;1.10;1.10;;;-0.90;92.20;;;;;;4935877;29;20185;-60
2023/12/03 01:57:38;;;;;;;13.10;3.35;;;-0.90;92.00;;;;;;4936059;29;20414;-59
2023/12/03 02:00:06;;;;;;;1.63;1.40;;;-1.00;92.10;;;;;;4935982;29;20679;-59
2023/12/03 02:02:32;;;;;;;2.20;2.13;;;-1.00;92.00;;;;;;4935886;29;20173;-60
2023/12/03 02:04:58;;;;;;;0.63;0.63;;;-1.00;91.70;;;;;;4935880;29;20249;-60
2023/12/03 02:07:24;;;;;;;1.23;0.97;;;-1.10;91.60;;;;;;4935880;29;20675;-60
2023/12/03 02:09:50;;;;;;;2.05;1.95;;;-1.30;91.60;;;;;;4935654;29;20450;-60
2023/12/03 02:12:15;;;;;;;0.60;0.60;;;-1.50;91.60;;;;;;4935733;29;20267;-59
2023/12/03 02:14:42;;;;;;;2.70;1.50;;;-1.50;91.60;;;;;;4934278;29;20481;-59
2023/12/03 02:17:08;;;;;;;0.98;0.98;;;-1.70;91.70;;;;;;4935692;29;20563;-59
2023/12/03 02:19:33;;;;;;;0.40;0.40;;;-1.80;91.70;;;;;;4935824;29;20186;-60
2023/12/03 02:21:59;;;;;;;1.07;0.73;;;-2.10;91.70;;;;;;4935747;29;20273;-59
2023/12/03 02:24:25;;;;;;;1.80;1.70;;;-2.30;91.80;;;;;;4935223;29;20200;-59
2023/12/03 02:26:50;;;;;;;0.97;0.97;;;-2.50;92.00;;;;;;4935642;29;20260;-60
2023/12/03 02:29:16;;;;;;;1.10;1.10;;;-2.60;92.10;;;;;;4934449;29;20384;-60
2023/12/03 02:31:41;;;;;;;1.77;1.67;;;-2.70;92.30;;;;;;4935383;29;20166;-60
2023/12/03 02:34:10;;;;;;;2.83;2.33;;;-2.80;92.40;;;;;;4933969;29;20194;-59
2023/12/03 02:36:37;;;;;;;9.82;1.95;;;-3.00;92.40;;;;;;4935209;29;20269;-59
2023/12/03 02:39:03;;;;;;;1.20;1.15;;;-3.00;92.50;;;;;;4934877;29;20285;-60
2023/12/03 02:41:31;;;;;;;8.13;1.63;;;-3.10;92.50;;;;;;4935476;29;20187;-59
2023/12/03 02:43:57;;;;;;;0.63;0.63;;;-3.20;92.60;;;;;;4934983;29;20209;-59
2023/12/03 02:46:23;;;;;;;0.77;0.77;;;-3.20;92.60;;;;;;4935161;29;20183;-59
2023/12/03 02:48:49;;;;;;;0.70;0.70;;;-3.30;92.50;;;;;;4935047;29;20472;-60
2023/12/03 02:51:14;;;;;;;1.70;1.70;;;-3.40;92.60;;;;;;4935967;29;20410;-59
2023/12/03 02:53:45;;;;;;;1.85;1.75;;;-3.30;92.60;;;;;;4934677;29;20289;-59
2023/12/03 02:56:13;;;;;;;1.00;1.00;;;-3.30;92.40;;;;;;4935255;29;20660;-59
2023/12/03 02:58:40;;;;;;;1.58;1.58;;;-3.30;92.30;;;;;;4935201;29;20601;-59
2023/12/03 03:01:08;;;;;;;0.90;0.90;;;-3.40;92.30;;;;;;4934996;29;20189;-59
2023/12/03 03:03:34;;;;;;;1.02;1.02;;;-3.50;92.40;;;;;;4934128;29;20193;-59
2023/12/03 03:05:59;;;;;;;0.60;0.60;;;-3.60;92.50;;;;;;4934750;29;20238;-59
2023/12/03 03:08:25;;;;;;;1.47;1.47;;;-3.70;92.50;;;;;;4934796;29;20501;-59
2023/12/03 03:10:51;;;;;;;0.60;0.60;;;-3.80;92.70;;;;;;4933397;29;20464;-60
2023/12/03 03:13:16;;;;;;;1.33;1.33;;;-3.80;92.80;;;;;;4934428;29;20310;-60
2023/12/03 03:15:42;;;;;;;0.60;0.60;;;-3.80;92.70;;;;;;4934667;29;20171;-59
2023/12/03 03:18:08;;;;;;;0.60;0.60;;;-3.90;92.50;;;;;;4934664;29;20239;-59
2023/12/03 03:20:36;;;;;;;2.80;2.67;;;-4.00;92.70;;;;;;4934723;29;20170;-59
2023/12/03 03:23:01;;;;;;;0.95;0.95;;;-4.00;93.00;;;;;;4934330;29;20263;-60
2023/12/03 03:25:27;;;;;;;0.83;0.83;;;-3.90;93.00;;;;;;4933374;29;20209;-60
2023/12/03 03:27:53;;;;;;;0.83;0.83;;;-3.90;92.80;;;;;;4934669;29;20174;-59
2023/12/03 03:30:20;;;;;;;2.07;1.97;;;-4.00;92.70;;;;;;4934226;29;20730;-59
2023/12/03 03:32:45;;;;;;;0.73;0.73;;;-4.10;92.70;;;;;;4934382;29;20194;-59
2023/12/03 03:35:11;;;;;;;0.73;0.73;;;-4.00;92.70;;;;;;4934268;29;20656;-60
2023/12/03 03:37:37;;;;;;;1.10;1.10;;;-4.00;92.60;;;;;;4934430;29;20174;-60
2023/12/03 03:40:03;;;;;;;9.53;2.20;;;-4.00;92.90;;;;;;4934420;29;20174;-59
2023/12/03 03:42:29;;;;;;;0.87;0.87;;;-4.20;92.40;;;;;;4934268;29;20233;-59
2023/12/03 03:44:54;;;;;;;0.60;0.60;;;-4.20;92.50;;;;;;4934092;29;20412;-59
2023/12/03 03:47:21;;;;;;;0.85;0.85;;;-4.20;92.40;;;;;;4934358;29;20190;-59
2023/12/03 03:49:46;;;;;;;0.93;0.93;;;-4.40;92.40;;;;;;4934321;29;20264;-58
2023/12/03 03:52:12;;;;;;;1.03;1.03;;;-4.40;92.60;;;;;;4934148;29;20206;-59
2023/12/03 03:54:41;;;;;;;1.27;1.27;;;-4.40;92.70;;;;;;4933947;29;20786;-59
2023/12/03 03:57:07;;;;;;;0.40;0.40;;;-4.30;92.60;;;;;;4934355;29;20190;-60
2023/12/03 03:59:32;;;;;;;3.33;3.13;;;-4.30;92.40;;;;;;4934311;29;20189;-59
2023/12/03 04:01:58;;;;;;;0.63;0.63;;;-4.40;92.10;;;;;;4934367;29;20181;-59
2023/12/03 04:04:24;;;;;;;0.82;0.82;;;-4.40;92.30;;;;;;4933882;29;20218;-59
2023/12/03 04:06:50;;;;;;;3.40;3.20;;;-4.50;92.40;;;;;;4934378;29;20214;-59
2023/12/03 04:09:15;;;;;;;0.40;0.40;;;-4.60;92.50;;;;;;4934291;29;20639;-59
2023/12/03 04:11:42;;;;;;;0.90;0.90;;;-4.60;92.50;;;;;;4934231;29;20174;-61
2023/12/03 04:14:10;;;;;;;1.42;1.38;;;-4.40;92.40;;;;;;4933704;29;20435;-61
2023/12/03 04:16:37;;;;;;;3.00;1.58;;;-4.40;92.20;;;;;;4936469;29;20673;-61
2023/12/03 04:19:03;;;;;;;3.92;3.47;;;-4.60;92.10;;;;;;4938092;29;20186;-61
2023/12/03 04:21:29;;;;;;;1.00;1.00;;;-4.60;92.10;;;;;;4937862;29;20188;-60
2023/12/03 04:23:56;;;;;;;2.10;1.90;;;-4.60;92.00;;;;;;4937477;29;20763;-61
2023/12/03 04:26:21;;;;;;;0.80;0.80;;;-4.70;91.90;;;;;;4936505;29;20189;-61
2023/12/03 04:28:47;;;;;;;0.67;0.67;;;-4.80;91.80;;;;;;4937601;29;20561;-61
2023/12/03 04:31:19;;;;;;;2.10;2.00;;;-4.90;92.00;;;;;;4937698;29;20544;-61
2023/12/03 04:33:46;;;;;;;2.30;1.30;;;-4.90;92.20;;;;;;4935794;29;20512;-61
2023/12/03 04:36:12;;;;;;;0.60;0.60;;;-5.00;92.20;;;;;;4937443;29;20182;-61
2023/12/03 04:38:38;;;;;;;2.00;1.90;;;-5.00;92.40;;;;;;4937582;29;20166;-61
2023/12/03 04:41:04;;;;;;;0.87;0.87;;;-4.90;92.20;;;;;;4937525;29;20570;-61
2023/12/03 04:43:29;;;;;;;0.70;0.70;;;-5.00;91.90;;;;;;4937011;29;20270;-61
2023/12/03 04:45:55;;;;;;;0.70;0.70;;;-5.10;91.90;;;;;;4937420;29;20206;-61
2023/12/03 04:48:20;;;;;;;0.70;0.70;;;-5.10;92.10;;;;;;4937361;29;20190;-60
2023/12/03 04:50:46;;;;;;;1.08;1.02;;;-5.00;92.10;;;;;;4937275;29;20210;-60
2023/12/03 04:53:13;;;;;;;1.30;1.30;;;-4.90;91.90;;;;;;4936675;29;20783;-61
2023/12/03 04:55:38;;;;;;;0.90;0.90;;;-4.90;91.70;;;;;;4937283;29;20170;-61
2023/12/03 04:58:04;;;;;;;2.20;2.10;;;-5.00;91.50;;;;;;4937158;29;20175;-61
2023/12/03 05:00:30;;;;;;;0.60;0.60;;;-5.00;91.40;;;;;;4937162;29;20212;-61
2023/12/03 05:02:55;;;;;;;0.60;0.60;;;-5.00;91.30;;;;;;4935487;29;20206;-60
2023/12/03 05:05:21;;;;;;;0.90;0.90;;;-5.10;91.30;;;;;;4937090;29;20656;-60
2023/12/03 05:07:46;;;;;;;0.77;0.77;;;-5.30;91.30;;;;;;4937015;29;20229;-61
2023/12/03 05:10:13;;;;;;;0.73;0.73;;;-5.40;91.40;;;;;;4935656;29;20411;-61
2023/12/03 05:12:38;;;;;;;0.65;0.65;;;-5.40;91.40;;;;;;4936841;29;20205;-61
2023/12/03 05:15:04;;;;;;;1.20;1.20;;;-5.40;91.40;;;;;;4936667;29;20175;-61
2023/12/03 05:17:30;;;;;;;5.73;1.13;;;-5.50;91.60;;;;;;4936913;29;20170;-61
2023/12/03 05:19:55;;;;;;;2.10;2.00;;;-5.40;91.60;;;;;;4936891;29;20787;-61
2023/12/03 05:22:21;;;;;;;2.03;1.97;;;-5.30;91.50;;;;;;4936648;29;20424;-60
2023/12/03 05:24:48;;;;;;;0.50;0.50;;;-5.30;91.50;;;;;;4936492;29;20170;-61
2023/12/03 05:27:14;;;;;;;1.95;1.85;;;-5.40;91.40;;;;;;4936046;29;20188;-60
2023/12/03 05:29:46;;;;;;;2.92;2.83;;;-5.50;91.40;;;;;;4936558;29;20229;-61
2023/12/03 05:32:28;;;;;;;1.05;1.05;;;-5.50;91.50;;;;;;4935676;29;20178;-60
2023/12/03 05:34:55;;;;;;;0.77;0.77;;;-5.40;91.40;;;;;;4936299;29;20185;-61
2023/12/03 05:37:21;;;;;;;0.70;0.70;;;-5.40;91.30;;;;;;4936387;29;20656;-60
2023/12/03 05:39:46;;;;;;;1.53;1.43;;;-5.50;91.20;;;;;;4936373;29;20269;-61
2023/12/03 05:42:13;;;;;;;2.53;1.33;;;-5.60;91.30;;;;;;4937104;29;20605;-61
2023/12/03 05:44:39;;;;;;;0.52;0.52;;;-5.60;91.50;;;;;;4936194;29;20210;-61
2023/12/03 05:47:04;;;;;;;1.03;1.03;;;-5.60;91.40;;;;;;4936280;29;20237;-61
2023/12/03 05:49:30;;;;;;;3.50;3.30;;;-5.70;91.40;;;;;;4936140;29;20194;-61
2023/12/03 05:51:56;;;;;;;0.97;0.97;;;-5.70;91.50;;;;;;4936060;29;20174;-61
2023/12/03 05:54:22;;;;;;;0.77;0.77;;;-5.70;91.60;;;;;;4935787;29;20609;-61
2023/12/03 05:56:47;;;;;;;0.80;0.80;;;-5.60;91.50;;;;;;4936302;29;20422;-60
2023/12/03 05:59:13;;;;;;;0.87;0.87;;;-5.60;91.40;;;;;;4936129;29;20549;-61
2023/12/03 06:01:38;;;;;;;0.60;0.60;;;-5.60;91.40;;;;;;4934412;29;20240;-61
2023/12/03 06:04:07;;;;;;;0.50;0.50;;;-5.70;91.40;;;;;;4934850;29;20198;-60
2023/12/03 06:06:36;;;;;;;3.53;3.42;;;-5.80;91.60;;;;;;4935854;29;20593;-61
2023/12/03 06:09:05;;;;;;;0.52;0.52;;;-5.70;91.50;;;;;;4935847;29;20256;-61
2023/12/03 06:11:32;;;;;;;0.52;0.52;;;-5.70;91.50;;;;;;4935833;29;20244;-60
2023/12/03 06:14:01;;;;;;;0.85;0.85;;;-5.70;91.60;;;;;;4935606;29;20209;-60
2023/12/03 06:16:28;;;;;;;1.25;1.15;;;-5.70;91.50;;;;;;4935681;29;20193;-61
2023/12/03 06:18:54;;;;;;;1.20;1.20;;;-5.50;91.20;;;;;;4991638;23;20238;-61
2023/12/03 06:21:19;;;;;;;1.00;1.00;;;-5.50;91.00;;;;;;4993526;28;20168;-61
2023/12/03 06:23:45;;;;;;;1.03;1.03;;;-5.60;90.80;;;;;;4993223;28;20173;-62
2023/12/03 06:26:10;;;;;;;2.60;2.40;;;-5.70;90.80;;;;;;4993316;28;20168;-61
2023/12/03 06:28:36;;;;;;;0.97;0.97;;;-5.80;90.90;;;;;;4993237;28;20196;-61
2023/12/03 06:31:07;;;;;;;0.57;0.57;;;-5.80;90.90;;;;;;4993400;28;20686;-61
2023/12/03 06:33:33;;;;;;;0.60;0.60;;;-5.80;90.90;;;;;;4993156;28;20168;-62
2023/12/03 06:35:59;;;;;;;0.98;0.98;;;-5.80;90.90;;;;;;4993174;28;20173;-62
2023/12/03 06:38:25;;;;;;;0.70;0.70;;;-5.80;90.90;;;;;;4992241;28;20188;-61
2023/12/03 06:40:51;;;;;;;1.63;1.53;;;-5.90;91.00;;;;;;4993042;28;20523;-61
2023/12/03 06:43:16;;;;;;;6.13;2.67;;;-6.00;91.10;;;;;;4975440;28;20653;-61
2023/12/03 06:45:42;;;;;;;0.57;0.57;;;-6.00;91.20;;;;;;4971970;28;20260;-62
2023/12/03 06:48:07;;;;;;;1.53;1.53;;;-6.00;91.00;;;;;;4984641;28;20567;-62
2023/12/03 06:50:33;;;;;;;0.63;0.63;;;-5.90;90.90;;;;;;4993268;28;20202;-61
2023/12/03 06:53:00;;;;;;;0.90;0.90;;;-6.10;90.90;;;;;;4992548;28;20664;-62
2023/12/03 06:55:26;;;;;;;1.15;1.15;;;-6.10;91.10;;;;;;4992806;28;20407;-62
2023/12/03 06:57:51;;;;;;;1.27;1.27;;;-6.10;91.20;;;;;;4992800;28;20199;-61
2023/12/03 07:00:17;;;;;;;0.80;0.80;;;-6.10;91.30;;;;;;4992746;28;20466;-61
2023/12/03 07:02:43;;;;;;;0.70;0.70;;;-6.20;91.30;;;;;;4992628;28;20199;-61
2023/12/03 07:05:09;;;;;;;0.50;0.50;;;-6.10;91.30;;;;;;4992305;28;20415;-62
2023/12/03 07:07:35;;;;;;;1.63;1.53;;;-6.00;91.20;;;;;;4975269;28;20267;-61
2023/12/03 07:10:00;;;;;;;0.70;0.70;;;-6.00;91.20;;;;;;4991826;28;20200;-61
2023/12/03 07:12:26;;;;;;;0.50;0.50;;;-6.00;91.20;;;;;;4992462;28;20488;-61
2023/12/03 07:14:52;;;;;;;2.43;2.33;;;-5.90;90.80;;;;;;4992278;28;20407;-61
2023/12/03 07:17:18;;;;;;;0.70;0.70;;;-5.90;90.90;;;;;;4992445;28;20177;-61
2023/12/03 07:19:45;;;;;;;1.02;1.02;;;-5.90;91.00;;;;;;4992186;28;20585;-61
2023/12/03 07:22:11;;;;;;;3.50;1.63;;;-5.80;91.00;;;;;;4992338;28;20184;-63
2023/12/03 07:24:41;;;;;;;0.90;0.90;;;-5.70;90.90;;;;;;4992072;28;20237;-61
2023/12/03 07:27:07;;;;;;;1.48;1.48;;;-5.80;90.90;;;;;;4992307;28;20427;-61
2023/12/03 07:29:33;;;;;;;0.60;0.60;;;-5.80;90.90;;;;;;4992177;28;20203;-61
2023/12/03 07:31:59;;;;;;;3.08;2.97;;;-5.90;90.80;;;;;;4992249;28;20578;-62
2023/12/03 07:34:28;;;;;;;0.73;0.73;;;-5.90;90.80;;;;;;4990739;28;20262;-61
2023/12/03 07:36:54;;;;;;;1.20;1.20;;;-5.80;90.70;;;;;;4990745;28;20717;-61
2023/12/03 07:39:23;;;;;;;0.83;0.83;;;-5.70;90.60;;;;;;4991775;28;20218;-61
2023/12/03 07:41:50;;;;;;;0.85;0.85;;;-5.70;90.50;;;;;;4992212;28;20171;-61
2023/12/03 07:44:16;;;;;;;1.63;1.63;;;-5.70;90.40;;;;;;4991830;28;20705;-61
2023/12/03 07:46:42;;;;;;;1.20;1.10;;;-5.70;90.50;;;;;;4992145;28;20259;-61
2023/12/03 07:49:08;;;;;;;1.10;1.10;;;-5.70;90.50;;;;;;4991812;28;20621;-61
2023/12/03 07:51:33;;;;;;;2.67;2.50;;;-5.70;90.30;;;;;;4991948;28;20197;-60
2023/12/03 07:53:59;;;;;;;0.50;0.50;;;-5.70;90.30;;;;;;4991914;28;20593;-61
2023/12/03 07:56:36;;;;;;;1.38;1.38;;;-5.80;90.40;;;;;;4992140;28;20224;-61
2023/12/03 07:59:03;;;;;;;0.82;0.82;;;-5.70;90.90;;;;;;4991914;28;20601;-61
2023/12/03 08:01:29;;;;;;;5.20;2.00;;;-4.90;92.20;;;;;;4992033;28;20204;-61
2023/12/03 08:03:54;;;;;;;1.70;1.60;;;-3.20;93.00;;;;;;4991701;28;20216;-61
2023/12/03 08:06:20;;;;;;;2.70;2.60;;;-1.10;91.90;;;;;;4991846;28;20421;-61
2023/12/03 08:08:46;;;;;;;3.70;2.37;;;0.70;86.50;;;;;;4991958;28;20199;-61
2023/12/03 08:11:13;;;;;;;1.00;1.00;;;1.70;80.20;;;;;;4991948;28;20690;-61
2023/12/03 08:13:38;;;;;;;0.68;0.68;;;2.00;74.30;;;;;;4991647;28;20186;-61
2023/12/03 08:16:04;;;;;;;7.13;1.77;;;1.70;69.00;;;;;;4991902;28;20179;-62
2023/12/03 08:18:34;;;;;;;0.68;0.68;;;1.30;68.00;;;;;;4991576;28;20200;-61
2023/12/03 08:21:00;;;;;;;3.17;1.42;;;1.00;69.30;;;;;;4992401;28;20215;-62
2023/12/03 08:23:26;;;;;;;2.20;0.93;;;1.00;70.80;;;;;;4990287;28;20611;-61
2023/12/03 08:25:52;;;;;;;0.80;0.80;;;1.20;69.30;;;;;;4991830;28;20414;-61
2023/12/03 08:28:18;;;;;;;3.33;1.93;;;1.20;68.40;;;;;;4991684;28;20199;-62
2023/12/03 08:30:44;;;;;;;4.70;1.73;;;0.90;68.20;;;;;;4991715;28;20453;-61
2023/12/03 08:33:11;;;;;;;3.23;0.90;;;0.60;68.70;;;;;;4991368;28;20190;-61
2023/12/03 08:35:36;;;;;;;2.25;2.15;;;0.30;70.00;;;;;;4991696;28;20923;-61
2023/12/03 08:38:02;;;;;;;1.43;1.17;;;0.10;71.60;;;;;;4991720;28;20214;-61
2023/12/03 08:40:28;;;;;;;3.50;2.33;;;0.20;72.70;;;;;;4991665;28;20679;-61
2023/12/03 08:42:54;;;;;;;2.75;2.55;;;0.30;71.90;;;;;;4991265;28;20640;-60
2023/12/03 08:45:19;;;;;;;1.33;1.33;;;0.50;72.50;;;;;;4991512;28;20186;-62
2023/12/03 08:47:45;;;;;;;1.90;1.33;;;0.90;72.20;;;;;;4991455;28;20191;-60
2023/12/03 08:50:10;;;;;;;5.20;1.23;;;1.10;71.80;;;;;;4991544;28;20261;-62
2023/12/03 08:52:36;;;;;;;1.20;1.20;;;1.20;71.10;;;;;;4991496;28;20182;-62
2023/12/03 08:55:02;;;;;;;2.03;0.87;;;1.40;71.40;;;;;;4991061;28;20213;-61
2023/12/03 08:57:28;;;;;;;2.30;1.77;;;1.40;70.90;;;;;;4991244;28;20547;-62
2023/12/03 08:59:54;;;;;;;1.47;1.37;;;1.50;71.20;;;;;;4991570;28;20191;-62
2023/12/03 09:02:20;;;;;;;2.28;2.17;;;1.90;71.60;;;;;;4993180;28;20267;-62
2023/12/03 09:04:46;;;;;;;1.43;1.37;;;3.00;69.90;;;;;;4977249;28;20287;-62
2023/12/03 09:07:13;;;;;;;2.97;1.73;;;4.50;67.90;;;;;;4994962;28;20404;-62
2023/12/03 09:09:42;;;;;;;2.07;1.77;;;6.30;64.50;;;;;;4994792;28;20454;-62
2023/12/03 09:12:08;;;;;;;3.60;3.00;;;7.70;59.70;;;;;;4994989;28;20928;-63
2023/12/03 09:14:34;;;;;;;3.97;3.30;;;8.90;54.90;;;;;;4994752;28;20411;-62
2023/12/03 09:17:00;;;;;;;4.90;4.40;;;9.80;52.10;;;;;;4994830;28;21086;-62
2023/12/03 09:19:26;;;;;;;2.03;1.93;;;10.80;49.30;;;;;;4994566;28;20693;-62
2023/12/03 09:21:52;;;;;;;3.23;2.43;;;11.40;47.10;;;;;;4994752;28;20423;-62
2023/12/03 09:24:17;;;;;;;3.10;2.80;;;11.70;45.10;;;;;;4994368;28;20222;-63
2023/12/03 09:26:45;;;;;;;3.63;1.80;;;11.90;44.00;;;;;;4994114;28;20422;-63
2023/12/03 09:29:11;;;;;;;5.03;4.60;;;11.90;43.60;;;;;;4976891;28;20251;-63
2023/12/03 09:31:40;;;;;;;2.40;2.20;;;12.20;43.10;;;;;;4994538;28;20408;-63
2023/12/03 09:34:08;;;;;;;3.37;2.57;;;12.60;41.80;;;;;;4994244;28;20409;-63
2023/12/03 09:36:34;;;;;;;2.30;2.10;;;13.00;40.90;;;;;;4994343;28;20419;-63
2023/12/03 09:39:00;;;;;;;6.63;3.10;;;13.30;39.70;;;;;;4994173;28;20516;-63
2023/12/03 09:41:29;;;;;;;2.77;2.57;;;13.50;39.50;;;;;;4994232;28;20404;-64
2023/12/03 09:44:01;;;;;;;3.60;2.63;;;13.70;39.30;;;;;;4994114;28;20847;-63
2023/12/03 09:46:32;;;;;;;1.97;1.67;;;14.20;38.90;;;;;;4994300;28;20411;-63
2023/12/03 09:49:04;;;;;;;1.73;1.63;;;14.40;38.30;;;;;;4992899;28;20456;-63
2023/12/03 09:51:32;;;;;;;2.00;1.90;;;14.40;36.90;;;;;;4994113;28;20416;-63
2023/12/03 09:53:59;;;;;;;1.27;1.17;;;14.20;36.30;;;;;;4993634;28;20470;-63
2023/12/03 09:56:25;;;;;;;2.80;2.50;;;13.70;37.20;;;;;;4993980;28;20517;-63
2023/12/03 09:58:52;;;;;;;2.70;2.20;;;13.00;37.70;;;;;;4993993;28;20485;-63
2023/12/03 10:01:21;;;;;;;2.87;2.50;;;12.50;38.10;;;;;;4993945;28;20443;-63
2023/12/03 10:03:49;;;;;;;7.27;2.50;;;12.50;38.90;;;;;;4992384;28;20510;-63
2023/12/03 10:06:19;;;;;;;1.80;1.70;;;12.80;38.80;;;;;;4993983;28;20411;-63
2023/12/03 10:08:46;;;;;;;2.57;1.97;;;13.00;38.60;;;;;;4993928;28;20956;-62
2023/12/03 10:11:16;;;;;;;3.80;2.70;;;13.20;38.80;;;;;;4993733;28;20411;-64
2023/12/03 10:13:43;;;;;;;2.23;2.13;;;13.40;39.60;;;;;;4993441;28;20420;-63
2023/12/03 10:16:13;;;;;;;1.97;1.47;;;13.50;39.70;;;;;;4993687;28;20488;-63
2023/12/03 10:18:39;;;;;;;2.00;1.53;;;13.70;39.90;;;;;;4993580;28;20458;-63
2023/12/03 10:21:06;;;;;;;2.50;1.93;;;13.80;39.90;;;;;;4993742;28;20984;-63
2023/12/03 10:23:32;;;;;;;3.10;2.27;;;13.70;39.90;;;;;;4993194;28;20257;-64
2023/12/03 10:26:10;;;;;;;3.27;2.53;;;13.60;40.00;;;;;;4993446;28;20406;-63
2023/12/03 10:28:35;;;;;;;1.80;1.70;;;13.40;40.30;;;;;;4993445;28;20211;-64
2023/12/03 10:31:01;;;;;;;2.37;2.17;;;13.10;39.80;;;;;;4993330;28;20986;-64
2023/12/03 10:33:26;;;;;;;2.30;1.93;;;12.70;40.60;;;;;;4993123;28;20188;-64
2023/12/03 10:35:59;;;;;;;2.03;1.57;;;12.40;41.10;;;;;;4993140;28;20184;-63
2023/12/03 10:38:25;;;;;;;2.63;1.53;;;12.10;41.80;;;;;;4993474;28;20198;-63
2023/12/03 10:40:51;;;;;;;2.23;2.03;;;11.80;42.30;;;;;;4993305;28;20470;-64
2023/12/03 10:43:17;;;;;;;7.97;5.57;;;11.60;42.80;;;;;;4992848;28;20184;-63
2023/12/03 10:45:42;;;;;;;8.53;4.67;;;11.20;42.20;;;;;;4993124;28;20198;-63
2023/12/03 10:48:10;;;;;;;2.47;2.27;;;10.70;42.40;;;;;;4993229;28;20192;-63
2023/12/03 10:50:38;;;;;;;2.50;2.23;;;10.10;43.90;;;;;;4993196;28;20216;-62
2023/12/03 10:53:05;;;;;;;3.07;2.10;;;9.60;46.20;;;;;;4992953;28;20411;-62
2023/12/03 10:55:31;;;;;;;3.10;2.30;;;8.90;47.40;;;;;;4993102;28;20835;-63
2023/12/03 10:58:03;;;;;;;2.95;2.75;;;8.10;48.70;;;;;;4991845;28;20439;-63
2023/12/03 11:00:40;;;;;;;6.18;2.88;;;7.40;50.10;;;;;;4992052;28;20192;-63
2023/12/03 11:03:17;;;;;;;1.73;1.63;;;6.80;51.50;;;;;;4992080;28;20183;-62
2023/12/03 11:05:53;;;;;;;2.17;2.08;;;6.40;52.90;;;;;;4993135;28;20200;-63
2023/12/03 11:08:21;;;;;;;1.70;1.60;;;6.00;54.20;;;;;;4992852;28;20195;-63
2023/12/03 11:10:48;;;;;;;4.80;2.40;;;5.70;55.00;;;;;;4993034;28;20211;-63
2023/12/03 11:13:16;;;;;;;4.28;3.30;;;5.30;55.60;;;;;;4992747;28;20192;-62
2023/12/03 11:15:44;;;;;;;2.13;2.03;;;4.80;56.70;;;;;;4991608;28;20197;-62
2023/12/03 11:18:12;;;;;;;3.05;1.85;;;4.30;58.00;;;;;;4992619;28;20302;-62
2023/12/03 11:20:39;;;;;;;3.10;2.90;;;4.10;58.90;;;;;;4992740;28;20174;-63
2023/12/03 11:23:43;;;;;;;5.28;4.43;;;4.10;60.30;;;;;;4991224;28;20194;-62
2023/12/03 11:26:15;;;;;;;2.25;1.55;;;4.00;60.80;;;;;;4992272;28;20315;-62
2023/12/03 11:28:53;;;;;;;5.40;4.57;;;3.80;61.10;;;;;;4992528;28;20201;-63
2023/12/03 11:31:19;;;;;;;1.92;1.83;;;3.60;62.00;;;;;;4992269;28;20201;-63
2023/12/03 11:33:57;;;;;;;1.00;1.00;;;3.30;62.70;;;;;;4992325;28;20227;-62
2023/12/03 11:36:36;;;;;;;1.67;1.52;;;2.90;64.00;;;;;;4992700;28;20565;-63
2023/12/03 11:39:06;;;;;;;2.47;1.98;;;2.70;65.30;;;;;;4992387;28;20195;-62
2023/12/03 11:41:38;;;;;;;4.28;4.00;;;2.30;66.80;;;;;;4992391;28;20176;-62
2023/12/03 11:44:21;;;;;;;8.00;2.42;;;2.00;69.00;;;;;;4992001;28;20183;-63
2023/12/03 11:47:02;;;;;;;1.48;1.30;;;1.70;70.90;;;;;;4992466;28;20199;-62
2023/12/03 11:49:28;;;;;;;1.42;1.35;;;1.40;73.30;;;;;;4992216;28;20649;-63
2023/12/03 11:51:55;;;;;;;1.67;1.40;;;1.10;76.10;;;;;;4992185;28;20218;-63
2023/12/03 11:54:25;;;;;;;1.33;1.33;;;1.00;78.40;;;;;;4991692;28;20653;-62
2023/12/03 11:56:53;;;;;;;1.88;1.33;;;1.00;80.30;;;;;;4992041;28;20204;-62
2023/12/03 11:59:21;;;;;;;1.55;0.95;;;1.00;81.80;;;;;;4992073;28;20715;-62
2023/12/03 12:01:46;;;;;;;1.48;1.42;;;0.90;82.80;;;;;;4991985;28;20246;-62
2023/12/03 12:04:22;;;;;;;1.90;1.47;;;0.80;83.90;;;;;;4990989;28;20184;-63
2023/12/03 12:06:48;;;;;;;2.70;2.55;;;0.60;85.60;;;;;;4991423;28;20191;-62
2023/12/03 12:09:23;;;;;;;1.43;1.33;;;0.50;87.10;;;;;;4991584;28;20221;-62
2023/12/03 12:11:50;;;;;;;2.05;1.95;;;0.60;88.40;;;;;;4991868;28;20412;-62
2023/12/03 12:14:19;;;;;;;1.83;1.73;;;0.50;89.20;;;;;;4990429;28;20182;-62
2023/12/03 12:16:46;;;;;;;2.58;1.52;;;0.30;90.10;;;;;;4992033;28;20631;-63
2023/12/03 12:19:12;;;;;;;1.08;1.00;;;0.30;90.60;;;;;;5011639;23;20280;-61
2023/12/03 12:21:56;;;;;;;2.00;1.90;;;0.10;90.80;;;;;;4991717;28;20560;-60
2023/12/03 12:24:23;;;;;;;1.65;1.55;;;0.00;91.50;;;;;;4991156;28;20181;-61
2023/12/03 12:26:50;;;;;;;1.20;1.20;;;0.10;92.00;;;;;;4991944;28;20174;-61
2023/12/03 12:29:18;;;;;;;0.82;0.82;;;0.10;92.10;;;;;;4991584;28;20211;-60
2023/12/03 12:31:45;;;;;;;0.55;0.55;;;0.10;92.20;;;;;;4991745;28;20540;-61
2023/12/03 12:34:11;;;;;;;1.45;1.40;;;0.00;92.00;;;;;;4991509;28;20280;-61
2023/12/03 12:36:37;;;;;;;0.80;0.77;;;-0.10;92.10;;;;;;4990012;28;20255;-61
2023/12/03 12:39:03;;;;;;;1.23;1.00;;;-0.20;92.10;;;;;;4976795;28;20266;-60
2023/12/03 12:41:39;;;;;;;1.58;1.58;;;-0.30;92.60;;;;;;4977462;28;20176;-59
2023/12/03 12:44:04;;;;;;;2.42;1.77;;;-0.30;93.10;;;;;;4994471;28;20669;-60
2023/12/03 12:46:31;;;;;;;1.30;1.07;;;-0.20;93.40;;;;;;4976836;28;20181;-61